Time;durP1;ratioP1;P1;durP2;ratioP2;P2;SDS_P1;SDS_P2;PMS_P1;PMS_P2;Temp;Humidity;BMP_temperature;BMP_pressure;BME280_temperature;BME280_humidity;BME280_pressure;Samples;Min_cycle;Max_cycle;Signal;HPM_P1;HPM_P2
2023/06/24 00:02:18;;;;;;;;;;;;;;;;;;5046107;28;43839;-70
2023/06/24 00:04:44;;;;;;;;;;;;;;;;;;5045220;28;45493;-70
2023/06/24 00:07:10;;;;;;;;;;;;;;;;;;5046325;28;45940;-70
2023/06/24 00:09:37;;;;;;;;;;;;;;;;;;5046091;28;44853;-70
2023/06/24 00:12:03;;;;;;;;;;;;;;;;;;5045462;28;46470;-70
2023/06/24 00:14:29;;;;;;;;;;;;;;;;;;5044023;28;46826;-70
2023/06/24 00:16:56;;;;;;;;;;;;;;;;;;5045853;28;44527;-70
2023/06/24 00:19:22;;;;;;;;;;;;;;;;;;5046064;28;46957;-70
2023/06/24 00:21:50;;;;;;;;;;;;;;;;;;5045028;28;41807;-70
2023/06/24 00:24:17;;;;;;;;;;;;;;;;;;5058373;28;46453;-71
2023/06/24 00:26:43;;;;;;;;;;;;;;;;;;5045259;28;47177;-70
2023/06/24 00:29:09;;;;;;;;;;;;;;;;;;5045887;28;45022;-70
2023/06/24 00:31:36;;;;;;;;;;;;;;;;;;5045692;28;46574;-70
2023/06/24 00:34:02;;;;;;;;;;;;;;;;;;5046129;28;45249;-70
2023/06/24 00:36:28;;;;;;;;;;;;;;;;;;5055871;28;45077;-71
2023/06/24 00:38:54;;;;;;;;;;;;;;;;;;5058093;28;46242;-70
2023/06/24 00:41:21;;;;;;;;;;;;;;;;;;5045388;28;45986;-70
2023/06/24 00:43:47;;;;;;;;;;;;;;;;;;5045820;28;44434;-70
2023/06/24 00:46:15;;;;;;;;;;;;;;;;;;5052538;28;44769;-70
2023/06/24 00:48:41;;;;;;;;;;;;;;;;;;5065829;28;45155;-70
2023/06/24 00:51:07;;;;;;;;;;;;;;;;;;5065738;28;44636;-70
2023/06/24 00:53:34;;;;;;;;;;;;;;;;;;5053228;28;45839;-71
2023/06/24 00:56:02;;;;;;;;;;;;;;;;;;5054463;28;45253;-70
2023/06/24 00:58:30;;;;;;;;;;;;;;;;;;5064160;28;45456;-70
2023/06/24 01:00:57;;;;;;;;;;;;;;;;;;5065821;28;45697;-70
2023/06/24 01:03:24;;;;;;;;;;;;;;;;;;5065570;28;45231;-70
2023/06/24 01:05:51;;;;;;;;;;;;;;;;;;5065337;28;47328;-70
2023/06/24 01:08:19;;;;;;;;;;;;;;;;;;5065480;28;45136;-70
2023/06/24 01:10:45;;;;;;;;;;;;;;;;;;5062461;28;45253;-70
2023/06/24 01:13:11;;;;;;;;;;;;;;;;;;5065080;28;45971;-70
2023/06/24 01:15:38;;;;;;;;;;;;;;;;;;5065055;28;45187;-70
2023/06/24 01:18:04;;;;;;;;;;;;;;;;;;5058640;28;45424;-70
2023/06/24 01:20:30;;;;;;;;;;;;;;;;;;5045640;28;44656;-70
2023/06/24 01:22:57;;;;;;;;;;;;;;;;;;5055726;28;43959;-70
2023/06/24 01:25:23;;;;;;;;;;;;;;;;;;5065233;28;45375;-70
2023/06/24 01:27:50;;;;;;;;;;;;;;;;;;5064130;28;44821;-71
2023/06/24 01:30:16;;;;;;;;;;;;;;;;;;5064862;28;45339;-70
2023/06/24 01:32:44;;;;;;;;;;;;;;;;;;5054886;28;46780;-70
2023/06/24 01:35:11;;;;;;;;;;;;;;;;;;5045337;28;42357;-70
2023/06/24 01:37:37;;;;;;;;;;;;;;;;;;5044845;28;45418;-70
2023/06/24 01:40:09;;;;;;;;;;;;;;;;;;5064731;28;46572;-70
2023/06/24 01:42:36;;;;;;;;;;;;;;;;;;5064053;28;42056;-70
2023/06/24 01:45:02;;;;;;;;;;;;;;;;;;5066363;28;44986;-70
2023/06/24 01:47:28;;;;;;;;;;;;;;;;;;5068275;28;45853;-70
2023/06/24 01:49:55;;;;;;;;;;;;;;;;;;5069192;28;47956;-70
2023/06/24 01:52:21;;;;;;;;;;;;;;;;;;5067615;28;47170;-70
2023/06/24 01:54:47;;;;;;;;;;;;;;;;;;5068061;28;44738;-70
2023/06/24 01:57:14;;;;;;;;;;;;;;;;;;5068745;28;46808;-70
2023/06/24 01:59:40;;;;;;;;;;;;;;;;;;5068142;28;47247;-70
2023/06/24 02:02:06;;;;;;;;;;;;;;;;;;5066958;28;45251;-70
2023/06/24 02:04:33;;;;;;;;;;;;;;;;;;5067952;28;46361;-70
2023/06/24 02:06:59;;;;;;;;;;;;;;;;;;5068949;28;45978;-70
2023/06/24 02:09:25;;;;;;;;;;;;;;;;;;5068488;28;46786;-70
2023/06/24 02:11:52;;;;;;;;;;;;;;;;;;5068031;28;47464;-70
2023/06/24 02:14:18;;;;;;;;;;;;;;;;;;5067696;28;42005;-70
2023/06/24 02:16:44;;;;;;;;;;;;;;;;;;5067363;28;45497;-70
2023/06/24 02:19:11;;;;;;;;;;;;;;;;;;5068281;28;44924;-70
2023/06/24 02:21:37;;;;;;;;;;;;;;;;;;5067168;28;42621;-70
2023/06/24 02:24:03;;;;;;;;;;;;;;;;;;5067354;28;45377;-70
2023/06/24 02:26:30;;;;;;;;;;;;;;;;;;5068430;28;47259;-70
2023/06/24 02:28:56;;;;;;;;;;;;;;;;;;5068825;28;44853;-70
2023/06/24 02:31:22;;;;;;;;;;;;;;;;;;5067059;28;47261;-70
2023/06/24 02:33:48;;;;;;;;;;;;;;;;;;5067105;28;44493;-70
2023/06/24 02:36:15;;;;;;;;;;;;;;;;;;5068149;28;44264;-70
2023/06/24 02:38:41;;;;;;;;;;;;;;;;;;5067762;28;46628;-70
2023/06/24 02:41:07;;;;;;;;;;;;;;;;;;5067676;28;44163;-70
2023/06/24 02:43:35;;;;;;;;;;;;;;;;;;5065782;28;46720;-70
2023/06/24 02:46:02;;;;;;;;;;;;;;;;;;5066482;28;47040;-70
2023/06/24 02:48:28;;;;;;;;;;;;;;;;;;5067502;28;43697;-70
2023/06/24 02:50:54;;;;;;;;;;;;;;;;;;5068143;28;44200;-70
2023/06/24 02:53:21;;;;;;;;;;;;;;;;;;5048947;28;41468;-70
2023/06/24 02:55:47;;;;;;;;;;;;;;;;;;5067645;28;45274;-70
2023/06/24 02:58:13;;;;;;;;;;;;;;;;;;5065147;28;46906;-70
2023/06/24 03:00:39;;;;;;;;;;;;;;;;;;5067298;28;44214;-70
2023/06/24 03:03:06;;;;;;;;;;;;;;;;;;5067031;28;45963;-70
2023/06/24 03:05:35;;;;;;;;;;;;;;;;;;5067503;28;47131;-70
2023/06/24 03:08:03;;;;;;;;;;;;;;;;;;5067502;28;43850;-70
2023/06/24 03:10:29;;;;;;;;;;;;;;;;;;5067985;28;45810;-70
2023/06/24 03:12:56;;;;;;;;;;;;;;;;;;5066690;28;45711;-70
2023/06/24 03:15:22;;;;;;;;;;;;;;;;;;5066322;28;46553;-70
2023/06/24 03:17:51;;;;;;;;;;;;;;;;;;5065920;28;47212;-70
2023/06/24 03:20:17;;;;;;;;;;;;;;;;;;5066505;28;45567;-70
2023/06/24 03:22:43;;;;;;;;;;;;;;;;;;5066559;28;45769;-70
2023/06/24 03:25:09;;;;;;;;;;;;;;;;;;5067375;28;46037;-70
2023/06/24 03:27:36;;;;;;;;;;;;;;;;;;5066573;28;43835;-70
2023/06/24 03:30:03;;;;;;;;;;;;;;;;;;5066145;28;43837;-70
2023/06/24 03:32:29;;;;;;;;;;;;;;;;;;5064140;28;47374;-70
2023/06/24 03:34:55;;;;;;;;;;;;;;;;;;5066625;28;44723;-70
2023/06/24 03:37:22;;;;;;;;;;;;;;;;;;5048596;28;45809;-70
2023/06/24 03:39:48;;;;;;;;;;;;;;;;;;5064812;28;43873;-70
2023/06/24 03:42:14;;;;;;;;;;;;;;;;;;5066314;28;47254;-70
2023/06/24 03:44:41;;;;;;;;;;;;;;;;;;5066611;28;43390;-70
2023/06/24 03:47:07;;;;;;;;;;;;;;;;;;5049797;28;42908;-70
2023/06/24 03:49:33;;;;;;;;;;;;;;;;;;5045911;28;46432;-70
2023/06/24 03:52:00;;;;;;;;;;;;;;;;;;5044956;28;46919;-70
2023/06/24 03:54:26;;;;;;;;;;;;;;;;;;5045617;28;43983;-70
2023/06/24 03:56:52;;;;;;;;;;;;;;;;;;5046761;28;46660;-70
2023/06/24 03:59:20;;;;;;;;;;;;;;;;;;5046398;28;45011;-70
2023/06/24 04:01:46;;;;;;;;;;;;;;;;;;5045254;28;44311;-70
2023/06/24 04:04:12;;;;;;;;;;;;;;;;;;5045844;28;47772;-70
2023/06/24 04:06:39;;;;;;;;;;;;;;;;;;5046080;28;44802;-70
2023/06/24 04:09:06;;;;;;;;;;;;;;;;;;5045892;28;45772;-70
2023/06/24 04:11:32;;;;;;;;;;;;;;;;;;5044665;28;46649;-70
2023/06/24 04:13:59;;;;;;;;;;;;;;;;;;5046371;28;44628;-70
2023/06/24 04:16:25;;;;;;;;;;;;;;;;;;5045069;28;46315;-70
2023/06/24 04:18:51;;;;;;;;;;;;;;;;;;5045074;28;44153;-70
2023/06/24 04:21:18;;;;;;;;;;;;;;;;;;5054222;28;45427;-70
2023/06/24 04:23:44;;;;;;;;;;;;;;;;;;5065983;28;47173;-70
2023/06/24 04:26:11;;;;;;;;;;;;;;;;;;5053991;28;44845;-70
2023/06/24 04:28:37;;;;;;;;;;;;;;;;;;5045697;28;44300;-70
2023/06/24 04:31:03;;;;;;;;;;;;;;;;;;5027881;28;46196;-70
2023/06/24 04:33:29;;;;;;;;;;;;;;;;;;5044270;28;45081;-70
2023/06/24 04:35:56;;;;;;;;;;;;;;;;;;5045168;28;44408;-70
2023/06/24 04:38:23;;;;;;;;;;;;;;;;;;5044589;28;44836;-70
2023/06/24 04:40:49;;;;;;;;;;;;;;;;;;5044130;28;47015;-70
2023/06/24 04:43:15;;;;;;;;;;;;;;;;;;5045499;28;46300;-70
2023/06/24 04:45:42;;;;;;;;;;;;;;;;;;5048610;28;46264;-70
2023/06/24 04:48:08;;;;;;;;;;;;;;;;;;5065551;28;45747;-70
2023/06/24 04:50:34;;;;;;;;;;;;;;;;;;5064671;28;45768;-70
2023/06/24 04:53:01;;;;;;;;;;;;;;;;;;5065637;28;43428;-70
2023/06/24 04:55:29;;;;;;;;;;;;;;;;;;5064060;28;45590;-70
2023/06/24 04:57:56;;;;;;;;;;;;;;;;;;5064010;28;46161;-70
2023/06/24 05:00:24;;;;;;;;;;;;;;;;;;5065229;28;43743;-70
2023/06/24 05:02:50;;;;;;;;;;;;;;;;;;5063977;28;47357;-70
2023/06/24 05:05:16;;;;;;;;;;;;;;;;;;5065060;28;45061;-70
2023/06/24 05:07:43;;;;;;;;;;;;;;;;;;5064691;28;46474;-70
2023/06/24 05:10:09;;;;;;;;;;;;;;;;;;5064949;28;46291;-70
2023/06/24 05:12:35;;;;;;;;;;;;;;;;;;5065573;28;41894;-70
2023/06/24 05:15:02;;;;;;;;;;;;;;;;;;5064644;28;46522;-70
2023/06/24 05:17:28;;;;;;;;;;;;;;;;;;5064735;28;46282;-70
2023/06/24 05:19:55;;;;;;;;;;;;;;;;;;5050459;28;44435;-70
2023/06/24 05:22:21;;;;;;;;;;;;;;;;;;5048671;28;45536;-70
2023/06/24 05:24:47;;;;;;;;;;;;;;;;;;5065217;28;45347;-70
2023/06/24 05:27:13;;;;;;;;;;;;;;;;;;5066621;28;45436;-69
2023/06/24 05:29:40;;;;;;;;;;;;;;;;;;5067930;28;47065;-69
2023/06/24 05:32:06;;;;;;;;;;;;;;;;;;5068909;28;43512;-69
2023/06/24 05:34:33;;;;;;;;;;;;;;;;;;5085684;28;45565;-69
2023/06/24 05:37:00;;;;;;;;;;;;;;;;;;5057460;28;47128;-69
2023/06/24 05:39:26;;;;;;;;;;;;;;;;;;5066108;28;44741;-70
2023/06/24 05:41:52;;;;;;;;;;;;;;;;;;5068884;28;43802;-69
2023/06/24 05:44:18;;;;;;;;;;;;;;;;;;5066364;28;45960;-70
2023/06/24 05:46:45;;;;;;;;;;;;;;;;;;5067777;28;46516;-69
2023/06/24 05:49:11;;;;;;;;;;;;;;;;;;5068577;28;46924;-70
2023/06/24 05:51:37;;;;;;;;;;;;;;;;;;5064926;28;43786;-69
2023/06/24 05:54:04;;;;;;;;;;;;;;;;;;5064948;28;46725;-69
2023/06/24 05:56:31;;;;;;;;;;;;;;;;;;5066993;28;46914;-69
2023/06/24 05:58:57;;;;;;;;;;;;;;;;;;5068104;28;46094;-69
2023/06/24 06:01:23;;;;;;;;;;;;;;;;;;5062777;28;45262;-70
2023/06/24 06:03:50;;;;;;;;;;;;;;;;;;5047431;28;44811;-69
2023/06/24 06:06:16;;;;;;;;;;;;;;;;;;5064585;28;43739;-69
2023/06/24 06:08:42;;;;;;;;;;;;;;;;;;5066114;28;46036;-69
2023/06/24 06:11:09;;;;;;;;;;;;;;;;;;5067256;28;43604;-69
2023/06/24 06:13:35;;;;;;;;;;;;;;;;;;5066910;28;45250;-69
2023/06/24 06:16:01;;;;;;;;;;;;;;;;;;5066453;28;46860;-69
2023/06/24 06:18:28;;;;;;;;;;;;;;;;;;5067728;28;43742;-69
2023/06/24 06:20:54;;;;;;;;;;;;;;;;;;5066456;28;44217;-70
2023/06/24 06:23:20;;;;;;;;;;;;;;;;;;5067970;28;44800;-70
2023/06/24 06:25:47;;;;;;;;;;;;;;;;;;5067404;28;43098;-70
2023/06/24 06:28:14;;;;;;;;;;;;;;;;;;5066123;28;44789;-70
2023/06/24 06:30:41;;;;;;;;;;;;;;;;;;5067988;28;43958;-70
2023/06/24 06:33:07;;;;;;;;;;;;;;;;;;5067050;28;45189;-70
2023/06/24 06:35:33;;;;;;;;;;;;;;;;;;5066922;28;46642;-70
2023/06/24 06:38:00;;;;;;;;;;;;;;;;;;5066958;28;44923;-70
2023/06/24 06:40:28;;;;;;;;;;;;;;;;;;5067960;28;46409;-70
2023/06/24 06:42:54;;;;;;;;;;;;;;;;;;5066497;28;47296;-70
2023/06/24 06:45:21;;;;;;;;;;;;;;;;;;5064861;28;44147;-70
2023/06/24 06:47:47;;;;;;;;;;;;;;;;;;5047027;28;47712;-70
2023/06/24 06:50:13;;;;;;;;;;;;;;;;;;5065246;28;44196;-70
2023/06/24 06:52:40;;;;;;;;;;;;;;;;;;5065233;28;46783;-71
2023/06/24 06:55:06;;;;;;;;;;;;;;;;;;5066314;28;46837;-71
2023/06/24 06:57:32;;;;;;;;;;;;;;;;;;5065187;28;43821;-71
2023/06/24 06:59:59;;;;;;;;;;;;;;;;;;5066479;28;44880;-71
2023/06/24 07:02:25;;;;;;;;;;;;;;;;;;5065493;28;44051;-71
2023/06/24 07:04:51;;;;;;;;;;;;;;;;;;5062793;28;43777;-71
2023/06/24 07:07:17;;;;;;;;;;;;;;;;;;5060380;28;44242;-71
2023/06/24 07:09:46;;;;;;;;;;;;;;;;;;5064840;28;45818;-71
2023/06/24 07:12:13;;;;;;;;;;;;;;;;;;5065410;28;46903;-70
2023/06/24 07:14:39;;;;;;;;;;;;;;;;;;5061696;28;45702;-70
2023/06/24 07:17:05;;;;;;;;;;;;;;;;;;5063468;28;43518;-70
2023/06/24 07:19:32;;;;;;;;;;;;;;;;;;5063736;28;43417;-70
2023/06/24 07:21:58;;;;;;;;;;;;;;;;;;5055557;28;45528;-70
2023/06/24 07:24:24;;;;;;;;;;;;;;;;;;5066774;28;43946;-70
2023/06/24 07:26:51;;;;;;;;;;;;;;;;;;5066240;28;43867;-70
2023/06/24 07:29:17;;;;;;;;;;;;;;;;;;5059620;28;46190;-70
2023/06/24 07:31:43;;;;;;;;;;;;;;;;;;5077615;28;44858;-68
2023/06/24 07:34:10;;;;;;;;;;;;;;;;;;5063490;28;43849;-71
2023/06/24 07:36:36;;;;;;;;;;;;;;;;;;5066848;28;45897;-71
2023/06/24 07:39:02;;;;;;;;;;;;;;;;;;5067618;28;43381;-71
2023/06/24 07:41:28;;;;;;;;;;;;;;;;;;5066233;28;47259;-71
2023/06/24 07:43:55;;;;;;;;;;;;;;;;;;5066641;28;43060;-71
2023/06/24 07:46:21;;;;;;;;;;;;;;;;;;5066081;28;45395;-71
2023/06/24 07:48:47;;;;;;;;;;;;;;;;;;5067004;28;46221;-71
2023/06/24 07:51:14;;;;;;;;;;;;;;;;;;5067069;28;43796;-71
2023/06/24 07:53:40;;;;;;;;;;;;;;;;;;5066860;28;44850;-71
2023/06/24 07:56:06;;;;;;;;;;;;;;;;;;5048045;28;44216;-71
2023/06/24 07:58:33;;;;;;;;;;;;;;;;;;5065708;28;46622;-71
2023/06/24 08:00:59;;;;;;;;;;;;;;;;;;5066534;28;45921;-71
2023/06/24 08:03:25;;;;;;;;;;;;;;;;;;5066596;28;44711;-71
2023/06/24 08:05:51;;;;;;;;;;;;;;;;;;5065968;28;46033;-71
2023/06/24 08:08:19;;;;;;;;;;;;;;;;;;5066236;28;45741;-69
2023/06/24 08:10:45;;;;;;;;;;;;;;;;;;5065066;28;43662;-70
2023/06/24 08:13:12;;;;;;;;;;;;;;;;;;5066062;28;46597;-69
2023/06/24 08:15:38;;;;;;;;;;;;;;;;;;5065751;28;34517;-70
2023/06/24 08:18:07;;;;;;;;;;;;;;;;;;5066255;28;46844;-70
2023/06/24 08:20:33;;;;;;;;;;;;;;;;;;5065912;28;46013;-69
2023/06/24 08:23:00;;;;;;;;;;;;;;;;;;5066219;28;45148;-69
2023/06/24 08:25:26;;;;;;;;;;;;;;;;;;5065445;28;46907;-69
2023/06/24 08:27:53;;;;;;;;;;;;;;;;;;5066161;28;47851;-70
2023/06/24 08:30:19;;;;;;;;;;;;;;;;;;5064784;28;44113;-70
2023/06/24 08:32:45;;;;;;;;;;;;;;;;;;5066152;28;46368;-70
2023/06/24 08:35:12;;;;;;;;;;;;;;;;;;5066196;28;47099;-69
2023/06/24 08:37:38;;;;;;;;;;;;;;;;;;5064541;28;45192;-68
2023/06/24 08:40:04;;;;;;;;;;;;;;;;;;5065312;28;45811;-68
2023/06/24 08:42:31;;;;;;;;;;;;;;;;;;5064013;28;43625;-68
2023/06/24 08:44:57;;;;;;;;;;;;;;;;;;5064087;28;44635;-68
2023/06/24 08:47:23;;;;;;;;;;;;;;;;;;5064875;28;46054;-68
2023/06/24 08:49:50;;;;;;;;;;;;;;;;;;5065821;28;45358;-69
2023/06/24 08:52:16;;;;;;;;;;;;;;;;;;5065448;28;46890;-68
2023/06/24 08:54:43;;;;;;;;;;;;;;;;;;5064103;28;46029;-69
2023/06/24 08:57:14;;;;;;;;;;;;;;;;;;5064367;28;44718;-69
2023/06/24 08:59:40;;;;;;;;;;;;;;;;;;5064979;28;45125;-69
2023/06/24 09:02:07;;;;;;;;;;;;;;;;;;5065917;28;43625;-69
2023/06/24 09:04:33;;;;;;;;;;;;;;;;;;5064201;28;46526;-69
2023/06/24 09:06:59;;;;;;;;;;;;;;;;;;5065652;28;44126;-69
2023/06/24 09:09:27;;;;;;;;;;;;;;;;;;5063590;28;42720;-68
2023/06/24 09:11:53;;;;;;;;;;;;;;;;;;5062642;28;44370;-69
2023/06/24 09:14:20;;;;;;;;;;;;;;;;;;5064032;28;47010;-69
2023/06/24 09:16:46;;;;;;;;;;;;;;;;;;5065764;28;44943;-69
2023/06/24 09:19:12;;;;;;;;;;;;;;;;;;5064629;28;46473;-68
2023/06/24 09:21:38;;;;;;;;;;;;;;;;;;5063849;28;45412;-69
2023/06/24 09:24:05;;;;;;;;;;;;;;;;;;5064947;28;46551;-69
2023/06/24 09:26:31;;;;;;;;;;;;;;;;;;5065374;28;46213;-69
2023/06/24 09:28:57;;;;;;;;;;;;;;;;;;5064865;28;43831;-69
2023/06/24 09:31:24;;;;;;;;;;;;;;;;;;5065144;28;45699;-67
2023/06/24 09:33:50;;;;;;;;;;;;;;;;;;5065178;28;47002;-67
2023/06/24 09:36:16;;;;;;;;;;;;;;;;;;5047043;28;42839;-68
2023/06/24 09:38:44;;;;;;;;;;;;;;;;;;5063931;28;44271;-68
2023/06/24 09:41:11;;;;;;;;;;;;;;;;;;5065577;28;46240;-68
2023/06/24 09:43:39;;;;;;;;;;;;;;;;;;5064529;28;45413;-68
2023/06/24 09:46:06;;;;;;;;;;;;;;;;;;5064706;28;46048;-68
2023/06/24 09:48:32;;;;;;;;;;;;;;;;;;5064844;28;43655;-68
2023/06/24 09:50:58;;;;;;;;;;;;;;;;;;5065124;28;45428;-68
2023/06/24 09:53:24;;;;;;;;;;;;;;;;;;5064244;28;45823;-67
2023/06/24 09:55:51;;;;;;;;;;;;;;;;;;5063990;28;42752;-68
2023/06/24 09:58:17;;;;;;;;;;;;;;;;;;5064409;28;45957;-68
2023/06/24 10:00:43;;;;;;;;;;;;;;;;;;5064382;28;48822;-68
2023/06/24 10:03:10;;;;;;;;;;;;;;;;;;5064284;28;44069;-68
2023/06/24 10:05:36;;;;;;;;;;;;;;;;;;5064632;28;46915;-68
2023/06/24 10:08:03;;;;;;;;;;;;;;;;;;5067088;28;43950;-68
2023/06/24 10:10:29;;;;;;;;;;;;;;;;;;5067580;28;45434;-68
2023/06/24 10:12:55;;;;;;;;;;;;;;;;;;5067819;28;44693;-68
2023/06/24 10:15:22;;;;;;;;;;;;;;;;;;5067934;28;43735;-68
2023/06/24 10:17:48;;;;;;;;;;;;;;;;;;5068530;28;45650;-69
2023/06/24 10:20:14;;;;;;;;;;;;;;;;;;5068299;28;44281;-68
2023/06/24 10:22:41;;;;;;;;;;;;;;;;;;5067690;28;43116;-68
2023/06/24 10:25:07;;;;;;;;;;;;;;;;;;5067356;28;45660;-68
2023/06/24 10:27:34;;;;;;;;;;;;;;;;;;5067284;28;43081;-69
2023/06/24 10:30:00;;;;;;;;;;;;;;;;;;5068641;28;46894;-69
2023/06/24 10:32:26;;;;;;;;;;;;;;;;;;5068148;28;47729;-68
2023/06/24 10:34:53;;;;;;;;;;;;;;;;;;5067794;28;44119;-68
2023/06/24 10:37:19;;;;;;;;;;;;;;;;;;5059478;28;46881;-69
2023/06/24 10:39:46;;;;;;;;;;;;;;;;;;5060972;28;47290;-69
2023/06/24 10:42:12;;;;;;;;;;;;;;;;;;5067855;28;42158;-69
2023/06/24 10:44:38;;;;;;;;;;;;;;;;;;5067888;28;42972;-69
2023/06/24 10:47:04;;;;;;;;;;;;;;;;;;5051852;28;44644;-69
2023/06/24 10:49:31;;;;;;;;;;;;;;;;;;5061825;28;45619;-70
2023/06/24 10:51:57;;;;;;;;;;;;;;;;;;5045311;28;46710;-69
2023/06/24 10:54:23;;;;;;;;;;;;;;;;;;5046831;28;44038;-69
2023/06/24 10:56:49;;;;;;;;;;;;;;;;;;5047413;28;44577;-69
2023/06/24 10:59:16;;;;;;;;;;;;;;;;;;5047616;28;47311;-69
2023/06/24 11:01:42;;;;;;;;;;;;;;;;;;5047635;28;45050;-69
2023/06/24 11:04:08;;;;;;;;;;;;;;;;;;5046623;28;46860;-69
2023/06/24 11:06:37;;;;;;;;;;;;;;;;;;5046932;28;45932;-69
2023/06/24 11:09:03;;;;;;;;;;;;;;;;;;5047115;28;46191;-69
2023/06/24 11:11:30;;;;;;;;;;;;;;;;;;5046921;28;45883;-69
2023/06/24 11:13:58;;;;;;;;;;;;;;;;;;5061625;28;45360;-69
2023/06/24 11:16:24;;;;;;;;;;;;;;;;;;5047005;28;44631;-69
2023/06/24 11:18:50;;;;;;;;;;;;;;;;;;5045777;28;45632;-70
2023/06/24 11:21:17;;;;;;;;;;;;;;;;;;5045453;28;43805;-68
2023/06/24 11:23:43;;;;;;;;;;;;;;;;;;5039986;28;45669;-71
2023/06/24 11:26:09;;;;;;;;;;;;;;;;;;5043451;28;47163;-70
2023/06/24 11:28:36;;;;;;;;;;;;;;;;;;5061444;28;44029;-70
2023/06/24 11:31:02;;;;;;;;;;;;;;;;;;5046876;28;47089;-70
2023/06/24 11:33:29;;;;;;;;;;;;;;;;;;5046877;28;43718;-70
2023/06/24 11:35:55;;;;;;;;;;;;;;;;;;5045083;28;45613;-70
2023/06/24 11:38:21;;;;;;;;;;;;;;;;;;5045784;28;47124;-70
2023/06/24 11:40:47;;;;;;;;;;;;;;;;;;5046777;28;45983;-70
2023/06/24 11:43:14;;;;;;;;;;;;;;;;;;5040481;28;45320;-70
2023/06/24 11:45:40;;;;;;;;;;;;;;;;;;5050012;28;45881;-70
2023/06/24 11:48:07;;;;;;;;;;;;;;;;;;5067158;28;45217;-70
2023/06/24 11:50:34;;;;;;;;;;;;;;;;;;5065947;28;46352;-70
2023/06/24 11:53:00;;;;;;;;;;;;;;;;;;5057397;28;44104;-70
2023/06/24 11:55:27;;;;;;;;;;;;;;;;;;5066074;28;45540;-67
2023/06/24 11:57:53;;;;;;;;;;;;;;;;;;5065856;28;46155;-70
2023/06/24 12:00:19;;;;;;;;;;;;;;;;;;5066326;28;43739;-70
2023/06/24 12:02:46;;;;;;;;;;;;;;;;;;5066427;28;45608;-70
2023/06/24 12:05:12;;;;;;;;;;;;;;;;;;5066536;28;46125;-71
2023/06/24 12:07:40;;;;;;;;;;;;;;;;;;5065917;28;45021;-70
2023/06/24 12:10:06;;;;;;;;;;;;;;;;;;5066711;28;46715;-70
2023/06/24 12:12:32;;;;;;;;;;;;;;;;;;5066433;28;45749;-70
2023/06/24 12:14:59;;;;;;;;;;;;;;;;;;5066411;28;46543;-70
2023/06/24 12:17:25;;;;;;;;;;;;;;;;;;5066404;28;46510;-70
2023/06/24 12:19:51;;;;;;;;;;;;;;;;;;5066871;28;41822;-70
2023/06/24 12:22:17;;;;;;;;;;;;;;;;;;5066276;28;45286;-70
2023/06/24 12:24:44;;;;;;;;;;;;;;;;;;5065248;28;45755;-70
2023/06/24 12:27:10;;;;;;;;;;;;;;;;;;5065472;28;43908;-70
2023/06/24 12:29:36;;;;;;;;;;;;;;;;;;5065794;28;46861;-70
2023/06/24 12:32:03;;;;;;;;;;;;;;;;;;5067028;28;47200;-70
2023/06/24 12:34:29;;;;;;;;;;;;;;;;;;5066125;28;46812;-70
2023/06/24 12:36:55;;;;;;;;;;;;;;;;;;5064862;28;46029;-70
2023/06/24 12:39:22;;;;;;;;;;;;;;;;;;5065494;28;43894;-70
2023/06/24 12:41:48;;;;;;;;;;;;;;;;;;5065944;28;46652;-70
2023/06/24 12:44:15;;;;;;;;;;;;;;;;;;5063738;28;46230;-70
2023/06/24 12:46:41;;;;;;;;;;;;;;;;;;5064813;28;43210;-70
2023/06/24 12:49:07;;;;;;;;;;;;;;;;;;5066142;28;44559;-70
2023/06/24 12:51:34;;;;;;;;;;;;;;;;;;5064601;28;47234;-70
2023/06/24 12:54:00;;;;;;;;;;;;;;;;;;5066563;28;45796;-70
2023/06/24 12:56:26;;;;;;;;;;;;;;;;;;5065640;28;46736;-70
2023/06/24 12:58:52;;;;;;;;;;;;;;;;;;5065587;28;43655;-71
2023/06/24 13:01:19;;;;;;;;;;;;;;;;;;5065895;28;46748;-70
2023/06/24 13:03:45;;;;;;;;;;;;;;;;;;5053813;28;45843;-71
2023/06/24 13:06:13;;;;;;;;;;;;;;;;;;5063689;28;43453;-71
2023/06/24 13:08:40;;;;;;;;;;;;;;;;;;5065550;28;44129;-71
2023/06/24 13:11:06;;;;;;;;;;;;;;;;;;5059355;28;46259;-69
2023/06/24 13:13:33;;;;;;;;;;;;;;;;;;5057772;28;45016;-69
2023/06/24 13:15:59;;;;;;;;;;;;;;;;;;5075317;28;48471;-69
2023/06/24 13:18:25;;;;;;;;;;;;;;;;;;5064855;28;45217;-69
2023/06/24 13:20:51;;;;;;;;;;;;;;;;;;5061497;28;45306;-69
2023/06/24 13:23:25;;;;;;;;;;;;;;;;;;5063735;28;46050;-69
2023/06/24 13:25:51;;;;;;;;;;;;;;;;;;5045976;28;42636;-69
2023/06/24 13:28:18;;;;;;;;;;;;;;;;;;5052002;28;45406;-70
2023/06/24 13:30:44;;;;;;;;;;;;;;;;;;5062907;28;45360;-69
2023/06/24 13:33:10;;;;;;;;;;;;;;;;;;5064367;28;44694;-70
2023/06/24 13:35:37;;;;;;;;;;;;;;;;;;5064851;28;47029;-70
2023/06/24 13:38:03;;;;;;;;;;;;;;;;;;5065638;28;46142;-70
2023/06/24 13:40:31;;;;;;;;;;;;;;;;;;5065110;28;44637;-69
2023/06/24 13:42:57;;;;;;;;;;;;;;;;;;5053267;28;45828;-70
2023/06/24 13:45:23;;;;;;;;;;;;;;;;;;5044556;28;44082;-70
2023/06/24 13:47:50;;;;;;;;;;;;;;;;;;5044185;28;44339;-70
2023/06/24 13:50:16;;;;;;;;;;;;;;;;;;5046998;28;46149;-70
2023/06/24 13:52:42;;;;;;;;;;;;;;;;;;5047823;28;43424;-69
2023/06/24 13:55:08;;;;;;;;;;;;;;;;;;5048034;28;45821;-70
2023/06/24 13:57:35;;;;;;;;;;;;;;;;;;5046684;28;47225;-69
2023/06/24 14:00:01;;;;;;;;;;;;;;;;;;5048672;28;43828;-69
2023/06/24 14:02:27;;;;;;;;;;;;;;;;;;5047128;28;46025;-69
2023/06/24 14:04:54;;;;;;;;;;;;;;;;;;5047261;28;43720;-69
2023/06/24 14:07:20;;;;;;;;;;;;;;;;;;5046703;28;46492;-69
2023/06/24 14:09:46;;;;;;;;;;;;;;;;;;5029223;28;47170;-69
2023/06/24 14:12:12;;;;;;;;;;;;;;;;;;5046409;28;45048;-70
2023/06/24 14:14:39;;;;;;;;;;;;;;;;;;5046812;28;46340;-69
2023/06/24 14:17:08;;;;;;;;;;;;;;;;;;5047604;28;47299;-70
2023/06/24 14:19:35;;;;;;;;;;;;;;;;;;5045424;28;45144;-69
2023/06/24 14:22:01;;;;;;;;;;;;;;;;;;5047717;28;46855;-69
2023/06/24 14:24:27;;;;;;;;;;;;;;;;;;5032669;28;42803;-70
2023/06/24 14:26:53;;;;;;;;;;;;;;;;;;5040851;28;46894;-69
2023/06/24 14:29:20;;;;;;;;;;;;;;;;;;5046192;28;45864;-69
2023/06/24 14:31:46;;;;;;;;;;;;;;;;;;5046918;28;45053;-70
2023/06/24 14:34:12;;;;;;;;;;;;;;;;;;5047064;28;46923;-70
2023/06/24 14:36:39;;;;;;;;;;;;;;;;;;5028587;28;46196;-69
2023/06/24 14:39:05;;;;;;;;;;;;;;;;;;5046595;28;43619;-69
2023/06/24 14:41:31;;;;;;;;;;;;;;;;;;5034414;28;46721;-70
2023/06/24 14:43:58;;;;;;;;;;;;;;;;;;5047054;28;45235;-69
2023/06/24 14:46:24;;;;;;;;;;;;;;;;;;5055821;28;46595;-70
2023/06/24 14:48:50;;;;;;;;;;;;;;;;;;5064597;28;46730;-70
2023/06/24 14:51:16;;;;;;;;;;;;;;;;;;5066040;28;42065;-69
2023/06/24 14:53:43;;;;;;;;;;;;;;;;;;5066527;28;45640;-69
2023/06/24 14:56:09;;;;;;;;;;;;;;;;;;5066455;28;47101;-69
2023/06/24 14:58:35;;;;;;;;;;;;;;;;;;5066971;28;43770;-69
2023/06/24 15:01:02;;;;;;;;;;;;;;;;;;5067188;28;46957;-69
2023/06/24 15:03:28;;;;;;;;;;;;;;;;;;5066565;28;44281;-69
2023/06/24 15:05:54;;;;;;;;;;;;;;;;;;5066274;28;45563;-69
2023/06/24 15:08:21;;;;;;;;;;;;;;;;;;5066250;28;46476;-69
2023/06/24 15:10:47;;;;;;;;;;;;;;;;;;5064115;28;44740;-69
2023/06/24 15:13:16;;;;;;;;;;;;;;;;;;5064761;28;45640;-69
2023/06/24 15:15:43;;;;;;;;;;;;;;;;;;5065179;28;46163;-69
2023/06/24 15:18:09;;;;;;;;;;;;;;;;;;5066273;28;43974;-70
2023/06/24 15:20:35;;;;;;;;;;;;;;;;;;5066944;28;46789;-70
2023/06/24 15:23:03;;;;;;;;;;;;;;;;;;5064196;28;46396;-70
2023/06/24 15:25:29;;;;;;;;;;;;;;;;;;5065135;28;45076;-69
2023/06/24 15:27:56;;;;;;;;;;;;;;;;;;5064820;28;47001;-69
2023/06/24 15:30:24;;;;;;;;;;;;;;;;;;5064909;28;42628;-70
2023/06/24 15:32:50;;;;;;;;;;;;;;;;;;5065925;28;45009;-70
2023/06/24 15:35:17;;;;;;;;;;;;;;;;;;5047622;28;47281;-70
2023/06/24 15:37:43;;;;;;;;;;;;;;;;;;5066053;28;43425;-70
2023/06/24 15:40:09;;;;;;;;;;;;;;;;;;5064878;28;45415;-70
2023/06/24 15:42:36;;;;;;;;;;;;;;;;;;5059289;28;44980;-70
2023/06/24 15:45:03;;;;;;;;;;;;;;;;;;5045884;28;44876;-70
2023/06/24 15:47:29;;;;;;;;;;;;;;;;;;5031851;28;46974;-70
2023/06/24 15:49:56;;;;;;;;;;;;;;;;;;5043736;28;44716;-70
2023/06/24 15:52:22;;;;;;;;;;;;;;;;;;5046134;28;46530;-70
2023/06/24 15:54:48;;;;;;;;;;;;;;;;;;5039664;28;46246;-70
2023/06/24 15:57:14;;;;;;;;;;;;;;;;;;5030628;28;44009;-70
2023/06/24 15:59:41;;;;;;;;;;;;;;;;;;5045917;28;47075;-70
2023/06/24 16:02:08;;;;;;;;;;;;;;;;;;5045032;28;44045;-69
2023/06/24 16:04:34;;;;;;;;;;;;;;;;;;5043897;28;44857;-70
2023/06/24 16:07:00;;;;;;;;;;;;;;;;;;5045443;28;45900;-69
2023/06/24 16:09:28;;;;;;;;;;;;;;;;;;5046097;28;46201;-70
2023/06/24 16:11:55;;;;;;;;;;;;;;;;;;5040804;28;44032;-70
2023/06/24 16:14:21;;;;;;;;;;;;;;;;;;5042462;28;46280;-70
2023/06/24 16:16:47;;;;;;;;;;;;;;;;;;5045843;28;45318;-70
2023/06/24 16:19:13;;;;;;;;;;;;;;;;;;5044657;28;43781;-69
2023/06/24 16:21:40;;;;;;;;;;;;;;;;;;5035246;28;45799;-68
2023/06/24 16:24:06;;;;;;;;;;;;;;;;;;5043987;28;44899;-68
2023/06/24 16:26:32;;;;;;;;;;;;;;;;;;5045603;28;44248;-68
2023/06/24 16:29:08;;;;;;;;;;;;;;;;;;5044816;28;45502;-70
2023/06/24 16:31:35;;;;;;;;;;;;;;;;;;5045108;28;42975;-68
2023/06/24 16:34:01;;;;;;;;;;;;;;;;;;5045642;28;48317;-67
2023/06/24 16:36:28;;;;;;;;;;;;;;;;;;5041227;28;44078;-67
2023/06/24 16:38:54;;;;;;;;;;;;;;;;;;5057989;28;45513;-70
2023/06/24 16:41:20;;;;;;;;;;;;;;;;;;5045756;28;45859;-67